Skip Navigation LinksHome page > Weather > Current weather Skip Navigation Links

Current Weather

Chicago O'Hare Intl, Chicago

For information only: do not use for flight planning or navigation.
Latest weather
Observation time Friday, May 14, 2021 8:51 AM CDT
Local time Friday, May 14, 2021 9:02 AM CDT
Flight conditions Visual Meteorological Conditions
Winds
Wind direction Northwest (320°)
Wind speed 8 mph
Visibility 10 mi.
Sky condition
Ceiling unlimited
Cloud layer scattered clouds 10,000 ft.
Temperature 65°F
Dewpoint 30°F
Altimeter 30.33 in.Hg
Derived measurements
Relative humidity 27%
Density altitude 682 ft.
Sea-level pressure 30.33 in.Hg
Remarks
Automated weather observing station with precipitation discriminator.
METAR KORD 141351Z 32007KT 10SM SCT100 18/M01 A3033 RMK AO2 SLP271 T01831011

Settings

Location code

InnerDrive.Weather 4.0.6770.0 Release CLR 4.0.30319.42000
Copyright ©2018 Inner Drive Technology. All rights reserved. Portions Copyright ©1986-2018 David Braverman.

Find weather

Site navigation


Skip Navigation Links

Place info

Page info

PayPal - The safer, easier way to pay online!

Return home.

Copyright ©2021 Inner Drive Technology. Purveyors of fine, hand-crafted computer software. Page printed 2021-05-14T14:02:01 UTC.